sensor_id;sensor_type;location;lat;lon;timestamp;P1;durP1;ratioP1;P2;durP2;ratioP2
47305;SDS011;33043;48.390;11.734;2022-07-05T03:30:39;11.90;;;5.10;;
47305;SDS011;33043;48.390;11.734;2022-07-05T03:33:05;10.90;;;5.15;;
47305;SDS011;33043;48.390;11.734;2022-07-05T03:35:31;9.60;;;5.47;;
47305;SDS011;33043;48.390;11.734;2022-07-05T03:37:58;15.93;;;5.60;;
47305;SDS011;33043;48.390;11.734;2022-07-05T03:40:24;8.65;;;5.30;;
47305;SDS011;33043;48.390;11.734;2022-07-05T03:42:50;8.60;;;4.68;;
47305;SDS011;33043;48.390;11.734;2022-07-05T03:45:17;7.62;;;5.22;;
47305;SDS011;33043;48.390;11.734;2022-07-05T03:47:43;9.48;;;5.55;;
47305;SDS011;33043;48.390;11.734;2022-07-05T03:50:09;7.62;;;5.03;;
47305;SDS011;33043;48.390;11.734;2022-07-05T03:52:36;7.97;;;5.62;;
47305;SDS011;33043;48.390;11.734;2022-07-05T03:55:02;8.80;;;5.47;;
47305;SDS011;33043;48.390;11.734;2022-07-05T03:57:29;9.55;;;5.50;;
47305;SDS011;33043;48.390;11.734;2022-07-05T03:59:55;7.15;;;4.47;;
47305;SDS011;33043;48.390;11.734;2022-07-05T04:02:21;8.60;;;4.45;;
47305;SDS011;33043;48.390;11.734;2022-07-05T04:04:47;18.12;;;8.10;;
47305;SDS011;33043;48.390;11.734;2022-07-05T04:07:14;7.82;;;4.47;;
47305;SDS011;33043;48.390;11.734;2022-07-05T04:09:40;10.98;;;5.47;;
47305;SDS011;33043;48.390;11.734;2022-07-05T04:12:06;9.73;;;5.43;;
47305;SDS011;33043;48.390;11.734;2022-07-05T04:14:33;8.10;;;4.75;;
47305;SDS011;33043;48.390;11.734;2022-07-05T04:16:59;11.93;;;4.60;;
47305;SDS011;33043;48.390;11.734;2022-07-05T04:19:25;7.65;;;5.05;;
47305;SDS011;33043;48.390;11.734;2022-07-05T04:21:52;9.45;;;5.10;;
47305;SDS011;33043;48.390;11.734;2022-07-05T04:24:18;8.48;;;5.40;;
47305;SDS011;33043;48.390;11.734;2022-07-05T04:26:44;11.93;;;5.15;;
47305;SDS011;33043;48.390;11.734;2022-07-05T04:29:10;15.40;;;5.78;;
47305;SDS011;33043;48.390;11.734;2022-07-05T04:31:37;9.48;;;5.12;;
47305;SDS011;33043;48.390;11.734;2022-07-05T04:34:03;14.30;;;4.80;;
47305;SDS011;33043;48.390;11.734;2022-07-05T04:36:29;7.05;;;4.18;;
47305;SDS011;33043;48.390;11.734;2022-07-05T04:38:56;10.38;;;5.53;;
47305;SDS011;33043;48.390;11.734;2022-07-05T04:41:22;12.68;;;5.00;;
47305;SDS011;33043;48.390;11.734;2022-07-05T04:43:48;9.25;;;4.32;;
47305;SDS011;33043;48.390;11.734;2022-07-05T04:46:15;15.00;;;4.97;;
47305;SDS011;33043;48.390;11.734;2022-07-05T04:48:41;8.57;;;4.90;;
47305;SDS011;33043;48.390;11.734;2022-07-05T04:51:07;7.45;;;4.62;;
47305;SDS011;33043;48.390;11.734;2022-07-05T04:53:34;8.95;;;4.43;;
47305;SDS011;33043;48.390;11.734;2022-07-05T04:56:00;9.90;;;4.75;;
47305;SDS011;33043;48.390;11.734;2022-07-05T04:58:26;7.90;;;4.32;;
47305;SDS011;33043;48.390;11.734;2022-07-05T05:00:53;7.22;;;3.65;;
47305;SDS011;33043;48.390;11.734;2022-07-05T05:03:19;8.57;;;4.62;;
47305;SDS011;33043;48.390;11.734;2022-07-05T05:05:46;9.70;;;4.03;;
47305;SDS011;33043;48.390;11.734;2022-07-05T05:08:12;8.70;;;4.15;;
47305;SDS011;33043;48.390;11.734;2022-07-05T05:10:38;11.52;;;3.62;;
47305;SDS011;33043;48.390;11.734;2022-07-05T05:13:04;6.37;;;3.25;;
47305;SDS011;33043;48.390;11.734;2022-07-05T05:15:31;7.70;;;3.60;;
47305;SDS011;33043;48.390;11.734;2022-07-05T05:17:57;13.73;;;4.00;;
47305;SDS011;33043;48.390;11.734;2022-07-05T05:20:23;9.20;;;3.58;;
47305;SDS011;33043;48.390;11.734;2022-07-05T05:22:50;7.75;;;3.35;;
47305;SDS011;33043;48.390;11.734;2022-07-05T05:25:16;6.60;;;3.37;;
47305;SDS011;33043;48.390;11.734;2022-07-05T05:27:46;13.10;;;3.10;;
47305;SDS011;33043;48.390;11.734;2022-07-05T05:30:13;7.50;;;2.87;;
47305;SDS011;33043;48.390;11.734;2022-07-05T05:32:39;4.35;;;2.92;;
47305;SDS011;33043;48.390;11.734;2022-07-05T05:35:06;6.30;;;3.03;;
47305;SDS011;33043;48.390;11.734;2022-07-05T05:37:49;7.00;;;3.55;;
47305;SDS011;33043;48.390;11.734;2022-07-05T05:40:15;6.00;;;3.47;;
47305;SDS011;33043;48.390;11.734;2022-07-05T05:42:42;8.82;;;2.90;;
47305;SDS011;33043;48.390;11.734;2022-07-05T05:45:08;8.32;;;3.03;;
47305;SDS011;33043;48.390;11.734;2022-07-05T05:50:10;9.68;;;2.47;;
47305;SDS011;33043;48.390;11.734;2022-07-05T05:52:36;7.28;;;3.35;;
47305;SDS011;33043;48.390;11.734;2022-07-05T05:55:03;4.68;;;3.33;;
47305;SDS011;33043;48.390;11.734;2022-07-05T05:57:31;10.73;;;3.47;;
47305;SDS011;33043;48.390;11.734;2022-07-05T05:59:57;5.78;;;3.58;;
47305;SDS011;33043;48.390;11.734;2022-07-05T06:02:24;5.53;;;3.40;;
47305;SDS011;33043;48.390;11.734;2022-07-05T06:04:50;9.35;;;3.62;;
47305;SDS011;33043;48.390;11.734;2022-07-05T06:07:16;6.28;;;3.62;;
47305;SDS011;33043;48.390;11.734;2022-07-05T06:09:42;10.77;;;3.72;;
47305;SDS011;33043;48.390;11.734;2022-07-05T06:12:09;6.65;;;3.35;;
47305;SDS011;33043;48.390;11.734;2022-07-05T06:14:35;6.40;;;3.83;;
47305;SDS011;33043;48.390;11.734;2022-07-05T06:17:01;9.73;;;3.85;;
47305;SDS011;33043;48.390;11.734;2022-07-05T06:19:27;6.40;;;3.62;;
47305;SDS011;33043;48.390;11.734;2022-07-05T06:21:54;7.93;;;4.05;;
47305;SDS011;33043;48.390;11.734;2022-07-05T06:24:20;6.12;;;4.10;;
47305;SDS011;33043;48.390;11.734;2022-07-05T06:26:46;7.87;;;3.75;;
47305;SDS011;33043;48.390;11.734;2022-07-05T06:29:12;12.90;;;4.15;;
47305;SDS011;33043;48.390;11.734;2022-07-05T06:31:39;10.00;;;3.65;;
47305;SDS011;33043;48.390;11.734;2022-07-05T06:34:05;8.30;;;3.83;;
47305;SDS011;33043;48.390;11.734;2022-07-05T06:36:31;9.15;;;3.20;;
47305;SDS011;33043;48.390;11.734;2022-07-05T06:38:57;6.80;;;3.72;;
47305;SDS011;33043;48.390;11.734;2022-07-05T06:41:24;6.72;;;3.53;;
47305;SDS011;33043;48.390;11.734;2022-07-05T06:43:50;4.97;;;3.25;;
47305;SDS011;33043;48.390;11.734;2022-07-05T06:46:16;6.45;;;2.90;;
47305;SDS011;33043;48.390;11.734;2022-07-05T06:48:42;5.78;;;2.70;;
47305;SDS011;33043;48.390;11.734;2022-07-05T06:51:10;9.02;;;3.12;;
47305;SDS011;33043;48.390;11.734;2022-07-05T06:53:36;3.12;;;2.45;;
47305;SDS011;33043;48.390;11.734;2022-07-05T06:56:02;3.97;;;2.15;;
47305;SDS011;33043;48.390;11.734;2022-07-05T06:58:29;11.12;;;2.58;;
47305;SDS011;33043;48.390;11.734;2022-07-05T07:00:55;4.40;;;2.30;;
47305;SDS011;33043;48.390;11.734;2022-07-05T07:03:21;6.45;;;2.10;;
47305;SDS011;33043;48.390;11.734;2022-07-05T07:05:47;3.37;;;1.75;;
47305;SDS011;33043;48.390;11.734;2022-07-05T07:08:14;6.28;;;1.75;;
47305;SDS011;33043;48.390;11.734;2022-07-05T07:10:59;2.72;;;1.60;;
47305;SDS011;33043;48.390;11.734;2022-07-05T07:13:25;4.37;;;1.50;;
47305;SDS011;33043;48.390;11.734;2022-07-05T07:15:51;4.30;;;1.40;;
47305;SDS011;33043;48.390;11.734;2022-07-05T07:18:18;4.68;;;1.55;;
47305;SDS011;33043;48.390;11.734;2022-07-05T07:20:44;8.45;;;1.42;;
47305;SDS011;33043;48.390;11.734;2022-07-05T07:23:10;7.22;;;1.80;;
47305;SDS011;33043;48.390;11.734;2022-07-05T07:25:37;4.55;;;1.40;;
47305;SDS011;33043;48.390;11.734;2022-07-05T07:28:03;3.05;;;1.35;;
47305;SDS011;33043;48.390;11.734;2022-07-05T07:30:31;2.85;;;1.40;;
47305;SDS011;33043;48.390;11.734;2022-07-05T07:32:58;7.75;;;1.40;;
47305;SDS011;33043;48.390;11.734;2022-07-05T07:35:24;2.03;;;1.30;;
47305;SDS011;33043;48.390;11.734;2022-07-05T07:37:50;2.50;;;1.35;;
47305;SDS011;33043;48.390;11.734;2022-07-05T07:40:17;2.17;;;1.30;;
47305;SDS011;33043;48.390;11.734;2022-07-05T07:42:43;2.60;;;1.65;;
47305;SDS011;33043;48.390;11.734;2022-07-05T07:45:09;2.55;;;1.25;;
47305;SDS011;33043;48.390;11.734;2022-07-05T07:47:36;3.92;;;1.92;;
47305;SDS011;33043;48.390;11.734;2022-07-05T07:50:03;3.37;;;1.52;;
47305;SDS011;33043;48.390;11.734;2022-07-05T07:52:30;5.47;;;1.30;;
47305;SDS011;33043;48.390;11.734;2022-07-05T07:54:58;1.62;;;1.40;;
47305;SDS011;33043;48.390;11.734;2022-07-05T07:57:24;2.97;;;1.20;;
47305;SDS011;33043;48.390;11.734;2022-07-05T07:59:51;6.18;;;1.50;;
47305;SDS011;33043;48.390;11.734;2022-07-05T08:02:17;2.55;;;1.50;;
47305;SDS011;33043;48.390;11.734;2022-07-05T08:04:46;9.18;;;1.42;;
47305;SDS011;33043;48.390;11.734;2022-07-05T08:07:13;4.47;;;1.67;;
47305;SDS011;33043;48.390;11.734;2022-07-05T08:09:40;3.80;;;1.30;;
47305;SDS011;33043;48.390;11.734;2022-07-05T08:12:06;2.12;;;1.30;;
47305;SDS011;33043;48.390;11.734;2022-07-05T08:14:33;6.43;;;2.72;;
47305;SDS011;33043;48.390;11.734;2022-07-05T08:16:59;2.65;;;1.35;;
47305;SDS011;33043;48.390;11.734;2022-07-05T08:19:25;3.03;;;1.40;;
47305;SDS011;33043;48.390;11.734;2022-07-05T08:22:10;3.45;;;1.27;;
47305;SDS011;33043;48.390;11.734;2022-07-05T08:24:37;1.55;;;1.40;;
47305;SDS011;33043;48.390;11.734;2022-07-05T08:27:05;3.10;;;1.23;;
47305;SDS011;33043;48.390;11.734;2022-07-05T08:29:31;1.60;;;1.17;;
47305;SDS011;33043;48.390;11.734;2022-07-05T08:31:57;3.00;;;1.85;;
47305;SDS011;33043;48.390;11.734;2022-07-05T08:34:24;5.03;;;1.50;;
47305;SDS011;33043;48.390;11.734;2022-07-05T08:36:50;4.05;;;1.65;;
47305;SDS011;33043;48.390;11.734;2022-07-05T08:39:16;3.80;;;1.30;;
47305;SDS011;33043;48.390;11.734;2022-07-05T08:41:43;4.85;;;1.48;;
47305;SDS011;33043;48.390;11.734;2022-07-05T08:44:13;4.00;;;1.27;;
47305;SDS011;33043;48.390;11.734;2022-07-05T08:46:39;7.60;;;1.52;;
47305;SDS011;33043;48.390;11.734;2022-07-05T08:49:06;2.33;;;1.35;;
47305;SDS011;33043;48.390;11.734;2022-07-05T08:51:34;2.40;;;1.17;;
47305;SDS011;33043;48.390;11.734;2022-07-05T08:54:00;2.67;;;1.10;;
47305;SDS011;33043;48.390;11.734;2022-07-05T08:56:27;4.90;;;1.37;;
47305;SDS011;33043;48.390;11.734;2022-07-05T08:58:53;2.20;;;1.08;;
47305;SDS011;33043;48.390;11.734;2022-07-05T09:01:19;2.83;;;1.02;;
47305;SDS011;33043;48.390;11.734;2022-07-05T09:03:48;2.55;;;1.40;;
47305;SDS011;33043;48.390;11.734;2022-07-05T09:06:19;1.80;;;1.23;;
47305;SDS011;33043;48.390;11.734;2022-07-05T09:08:46;4.07;;;1.10;;
47305;SDS011;33043;48.390;11.734;2022-07-05T09:11:14;4.30;;;1.10;;
47305;SDS011;33043;48.390;11.734;2022-07-05T09:13:41;2.72;;;0.82;;
47305;SDS011;33043;48.390;11.734;2022-07-05T09:16:08;1.50;;;0.95;;
47305;SDS011;33043;48.390;11.734;2022-07-05T09:18:45;4.07;;;1.15;;
47305;SDS011;33043;48.390;11.734;2022-07-05T09:23:41;1.25;;;0.75;;
47305;SDS011;33043;48.390;11.734;2022-07-05T09:26:08;1.30;;;1.20;;
47305;SDS011;33043;48.390;11.734;2022-07-05T09:28:35;2.97;;;0.73;;
47305;SDS011;33043;48.390;11.734;2022-07-05T09:31:01;2.35;;;0.95;;
47305;SDS011;33043;48.390;11.734;2022-07-05T09:33:27;8.48;;;1.00;;
47305;SDS011;33043;48.390;11.734;2022-07-05T09:35:54;1.98;;;1.05;;
47305;SDS011;33043;48.390;11.734;2022-07-05T09:38:25;1.90;;;0.90;;
47305;SDS011;33043;48.390;11.734;2022-07-05T09:40:58;2.65;;;0.93;;
47305;SDS011;33043;48.390;11.734;2022-07-05T09:43:28;3.62;;;0.93;;
47305;SDS011;33043;48.390;11.734;2022-07-05T09:48:21;2.47;;;0.80;;
47305;SDS011;33043;48.390;11.734;2022-07-05T09:50:48;2.67;;;0.98;;
47305;SDS011;33043;48.390;11.734;2022-07-05T09:53:18;4.78;;;0.93;;
47305;SDS011;33043;48.390;11.734;2022-07-05T09:56:03;2.55;;;0.95;;
47305;SDS011;33043;48.390;11.734;2022-07-05T09:58:30;4.15;;;0.88;;
47305;SDS011;33043;48.390;11.734;2022-07-05T10:00:59;2.83;;;0.82;;
47305;SDS011;33043;48.390;11.734;2022-07-05T10:03:25;2.45;;;0.88;;
47305;SDS011;33043;48.390;11.734;2022-07-05T10:05:52;1.12;;;0.70;;
47305;SDS011;33043;48.390;11.734;2022-07-05T10:08:18;1.48;;;0.80;;
47305;SDS011;33043;48.390;11.734;2022-07-05T10:10:46;5.00;;;0.80;;
47305;SDS011;33043;48.390;11.734;2022-07-05T10:13:13;2.60;;;0.98;;
47305;SDS011;33043;48.390;11.734;2022-07-05T10:15:40;2.95;;;0.90;;
47305;SDS011;33043;48.390;11.734;2022-07-05T10:18:14;0.95;;;0.65;;
47305;SDS011;33043;48.390;11.734;2022-07-05T10:20:46;1.75;;;1.10;;
47305;SDS011;33043;48.390;11.734;2022-07-05T10:23:14;5.10;;;0.80;;
47305;SDS011;33043;48.390;11.734;2022-07-05T10:25:45;2.25;;;0.80;;
47305;SDS011;33043;48.390;11.734;2022-07-05T10:28:15;1.37;;;0.73;;
47305;SDS011;33043;48.390;11.734;2022-07-05T10:30:44;5.75;;;1.00;;
47305;SDS011;33043;48.390;11.734;2022-07-05T10:33:11;1.85;;;0.80;;
47305;SDS011;33043;48.390;11.734;2022-07-05T10:35:43;2.05;;;0.90;;
47305;SDS011;33043;48.390;11.734;2022-07-05T10:38:09;1.37;;;0.80;;
47305;SDS011;33043;48.390;11.734;2022-07-05T10:40:36;2.78;;;0.85;;
47305;SDS011;33043;48.390;11.734;2022-07-05T10:43:02;2.62;;;1.10;;
47305;SDS011;33043;48.390;11.734;2022-07-05T10:45:37;1.20;;;1.10;;
47305;SDS011;33043;48.390;11.734;2022-07-05T10:48:38;1.70;;;1.00;;
47305;SDS011;33043;48.390;11.734;2022-07-05T10:51:01;2.95;;;1.15;;
47305;SDS011;33043;48.390;11.734;2022-07-05T10:58:30;5.20;;;1.02;;
47305;SDS011;33043;48.390;11.734;2022-07-05T11:03:46;1.00;;;0.90;;
47305;SDS011;33043;48.390;11.734;2022-07-05T11:06:22;4.65;;;1.17;;
47305;SDS011;33043;48.390;11.734;2022-07-05T11:09:34;1.77;;;0.80;;
47305;SDS011;33043;48.390;11.734;2022-07-05T11:11:44;2.40;;;1.00;;
47305;SDS011;33043;48.390;11.734;2022-07-05T11:16:49;1.55;;;0.70;;
47305;SDS011;33043;48.390;11.734;2022-07-05T11:22:24;1.55;;;1.00;;
47305;SDS011;33043;48.390;11.734;2022-07-05T11:24:50;2.70;;;1.08;;
47305;SDS011;33043;48.390;11.734;2022-07-05T11:27:17;1.17;;;1.08;;
47305;SDS011;33043;48.390;11.734;2022-07-05T11:32:11;3.10;;;1.02;;
47305;SDS011;33043;48.390;11.734;2022-07-05T11:34:38;2.55;;;1.00;;
47305;SDS011;33043;48.390;11.734;2022-07-05T11:39:45;2.55;;;1.40;;
47305;SDS011;33043;48.390;11.734;2022-07-05T11:42:21;1.25;;;0.85;;
47305;SDS011;33043;48.390;11.734;2022-07-05T11:44:50;8.77;;;1.40;;
47305;SDS011;33043;48.390;11.734;2022-07-05T11:47:17;2.65;;;1.10;;
47305;SDS011;33043;48.390;11.734;2022-07-05T11:49:53;4.00;;;1.20;;
47305;SDS011;33043;48.390;11.734;2022-07-05T11:52:24;1.85;;;1.17;;
47305;SDS011;33043;48.390;11.734;2022-07-05T11:54:51;4.33;;;1.80;;
47305;SDS011;33043;48.390;11.734;2022-07-05T11:57:18;1.58;;;0.82;;
47305;SDS011;33043;48.390;11.734;2022-07-05T11:59:44;2.85;;;1.27;;
47305;SDS011;33043;48.390;11.734;2022-07-05T12:02:11;1.58;;;1.10;;
47305;SDS011;33043;48.390;11.734;2022-07-05T12:04:37;2.20;;;1.05;;
47305;SDS011;33043;48.390;11.734;2022-07-05T12:07:04;3.60;;;1.27;;
47305;SDS011;33043;48.390;11.734;2022-07-05T12:09:31;2.08;;;1.10;;
47305;SDS011;33043;48.390;11.734;2022-07-05T12:12:21;5.95;;;1.20;;
47305;SDS011;33043;48.390;11.734;2022-07-05T12:15:07;2.72;;;1.00;;
47305;SDS011;33043;48.390;11.734;2022-07-05T12:17:33;1.25;;;1.00;;
47305;SDS011;33043;48.390;11.734;2022-07-05T12:20:00;3.08;;;1.08;;
47305;SDS011;33043;48.390;11.734;2022-07-05T12:22:37;5.53;;;1.10;;
47305;SDS011;33043;48.390;11.734;2022-07-05T12:25:04;2.00;;;0.90;;
47305;SDS011;33043;48.390;11.734;2022-07-05T12:27:32;1.30;;;0.85;;
47305;SDS011;33043;48.390;11.734;2022-07-05T12:29:58;5.03;;;1.10;;
47305;SDS011;33043;48.390;11.734;2022-07-05T12:32:27;2.28;;;1.10;;
47305;SDS011;33043;48.390;11.734;2022-07-05T12:34:57;3.35;;;1.20;;
47305;SDS011;33043;48.390;11.734;2022-07-05T12:37:24;3.67;;;1.15;;
47305;SDS011;33043;48.390;11.734;2022-07-05T12:40:01;4.50;;;1.20;;
47305;SDS011;33043;48.390;11.734;2022-07-05T12:42:31;3.75;;;1.17;;
47305;SDS011;33043;48.390;11.734;2022-07-05T12:45:11;2.85;;;1.23;;
47305;SDS011;33043;48.390;11.734;2022-07-05T12:47:47;4.15;;;0.98;;
47305;SDS011;33043;48.390;11.734;2022-07-05T12:50:14;6.15;;;1.05;;
47305;SDS011;33043;48.390;11.734;2022-07-05T12:55:35;2.37;;;0.75;;
47305;SDS011;33043;48.390;11.734;2022-07-05T12:58:20;1.00;;;0.90;;
47305;SDS011;33043;48.390;11.734;2022-07-05T13:00:46;1.10;;;1.00;;
47305;SDS011;33043;48.390;11.734;2022-07-05T13:03:13;2.37;;;1.02;;
47305;SDS011;33043;48.390;11.734;2022-07-05T13:05:39;0.70;;;0.70;;
47305;SDS011;33043;48.390;11.734;2022-07-05T13:08:05;2.92;;;0.90;;
47305;SDS011;33043;48.390;11.734;2022-07-05T13:10:32;3.15;;;1.17;;
47305;SDS011;33043;48.390;11.734;2022-07-05T13:12:58;3.60;;;0.85;;
47305;SDS011;33043;48.390;11.734;2022-07-05T13:15:24;3.15;;;0.80;;
47305;SDS011;33043;48.390;11.734;2022-07-05T13:17:51;2.72;;;0.95;;
47305;SDS011;33043;48.390;11.734;2022-07-05T13:20:17;2.65;;;0.90;;
47305;SDS011;33043;48.390;11.734;2022-07-05T13:22:45;0.93;;;0.65;;
47305;SDS011;33043;48.390;11.734;2022-07-05T13:25:12;1.83;;;1.15;;
47305;SDS011;33043;48.390;11.734;2022-07-05T13:27:39;4.85;;;0.90;;
47305;SDS011;33043;48.390;11.734;2022-07-05T13:30:05;2.17;;;0.82;;
47305;SDS011;33043;48.390;11.734;2022-07-05T13:32:32;2.75;;;0.95;;
47305;SDS011;33043;48.390;11.734;2022-07-05T13:34:58;1.55;;;0.85;;
47305;SDS011;33043;48.390;11.734;2022-07-05T13:37:25;1.77;;;0.80;;
47305;SDS011;33043;48.390;11.734;2022-07-05T13:39:51;1.83;;;0.90;;
47305;SDS011;33043;48.390;11.734;2022-07-05T13:42:17;1.30;;;1.00;;
47305;SDS011;33043;48.390;11.734;2022-07-05T13:44:43;1.87;;;0.85;;
47305;SDS011;33043;48.390;11.734;2022-07-05T13:47:10;1.02;;;0.70;;
47305;SDS011;33043;48.390;11.734;2022-07-05T13:49:36;4.57;;;0.90;;
47305;SDS011;33043;48.390;11.734;2022-07-05T13:52:05;5.25;;;0.80;;
47305;SDS011;33043;48.390;11.734;2022-07-05T13:54:31;4.20;;;0.82;;
47305;SDS011;33043;48.390;11.734;2022-07-05T13:56:58;2.83;;;0.90;;
47305;SDS011;33043;48.390;11.734;2022-07-05T13:59:24;1.83;;;0.80;;
47305;SDS011;33043;48.390;11.734;2022-07-05T14:01:50;2.72;;;0.68;;
47305;SDS011;33043;48.390;11.734;2022-07-05T14:04:16;3.33;;;1.02;;
47305;SDS011;33043;48.390;11.734;2022-07-05T14:06:43;1.27;;;0.65;;
47305;SDS011;33043;48.390;11.734;2022-07-05T14:09:09;11.12;;;0.93;;
47305;SDS011;33043;48.390;11.734;2022-07-05T14:11:35;1.25;;;0.73;;
47305;SDS011;33043;48.390;11.734;2022-07-05T14:14:02;2.12;;;0.60;;
47305;SDS011;33043;48.390;11.734;2022-07-05T14:16:28;2.00;;;0.77;;
47305;SDS011;33043;48.390;11.734;2022-07-05T14:18:54;1.10;;;0.70;;
47305;SDS011;33043;48.390;11.734;2022-07-05T14:21:21;0.98;;;0.73;;
47305;SDS011;33043;48.390;11.734;2022-07-05T14:23:48;6.30;;;0.88;;
47305;SDS011;33043;48.390;11.734;2022-07-05T14:26:15;2.10;;;0.60;;
47305;SDS011;33043;48.390;11.734;2022-07-05T14:28:42;1.33;;;0.70;;
47305;SDS011;33043;48.390;11.734;2022-07-05T14:31:09;3.25;;;0.90;;
47305;SDS011;33043;48.390;11.734;2022-07-05T14:33:36;2.17;;;1.00;;
47305;SDS011;33043;48.390;11.734;2022-07-05T14:36:07;3.70;;;1.02;;
47305;SDS011;33043;48.390;11.734;2022-07-05T14:38:33;3.62;;;0.82;;
47305;SDS011;33043;48.390;11.734;2022-07-05T14:40:59;4.93;;;0.70;;
47305;SDS011;33043;48.390;11.734;2022-07-05T14:43:25;2.72;;;0.82;;
47305;SDS011;33043;48.390;11.734;2022-07-05T14:45:52;3.15;;;0.85;;
47305;SDS011;33043;48.390;11.734;2022-07-05T14:48:18;1.50;;;0.82;;
47305;SDS011;33043;48.390;11.734;2022-07-05T14:50:46;1.95;;;0.98;;
47305;SDS011;33043;48.390;11.734;2022-07-05T14:53:12;1.62;;;0.85;;
47305;SDS011;33043;48.390;11.734;2022-07-05T14:55:40;2.17;;;0.70;;
47305;SDS011;33043;48.390;11.734;2022-07-05T14:58:08;1.75;;;0.73;;
47305;SDS011;33043;48.390;11.734;2022-07-05T15:00:34;1.10;;;0.80;;
47305;SDS011;33043;48.390;11.734;2022-07-05T15:03:01;4.95;;;1.05;;
47305;SDS011;33043;48.390;11.734;2022-07-05T15:05:27;4.97;;;0.95;;
47305;SDS011;33043;48.390;11.734;2022-07-05T15:07:56;3.45;;;0.88;;
47305;SDS011;33043;48.390;11.734;2022-07-05T15:10:23;0.98;;;0.82;;
47305;SDS011;33043;48.390;11.734;2022-07-05T15:12:49;4.87;;;1.15;;
47305;SDS011;33043;48.390;11.734;2022-07-05T15:15:16;1.25;;;0.82;;
47305;SDS011;33043;48.390;11.734;2022-07-05T15:17:42;1.58;;;1.00;;
47305;SDS011;33043;48.390;11.734;2022-07-05T15:20:09;1.83;;;0.85;;
47305;SDS011;33043;48.390;11.734;2022-07-05T15:22:36;1.23;;;0.68;;
47305;SDS011;33043;48.390;11.734;2022-07-05T15:25:02;2.20;;;0.85;;
47305;SDS011;33043;48.390;11.734;2022-07-05T15:27:29;3.12;;;1.00;;
47305;SDS011;33043;48.390;11.734;2022-07-05T15:29:59;1.67;;;0.82;;
47305;SDS011;33043;48.390;11.734;2022-07-05T15:32:25;4.50;;;0.70;;
47305;SDS011;33043;48.390;11.734;2022-07-05T15:34:51;1.48;;;0.90;;
47305;SDS011;33043;48.390;11.734;2022-07-05T15:37:19;1.08;;;0.90;;
47305;SDS011;33043;48.390;11.734;2022-07-05T15:39:46;4.50;;;0.85;;
47305;SDS011;33043;48.390;11.734;2022-07-05T15:42:12;1.37;;;1.02;;
47305;SDS011;33043;48.390;11.734;2022-07-05T15:44:41;2.87;;;0.93;;
47305;SDS011;33043;48.390;11.734;2022-07-05T15:47:07;4.72;;;1.00;;
47305;SDS011;33043;48.390;11.734;2022-07-05T15:49:35;2.78;;;0.77;;
47305;SDS011;33043;48.390;11.734;2022-07-05T15:52:01;5.50;;;0.93;;
47305;SDS011;33043;48.390;11.734;2022-07-05T15:54:28;31.40;;;1.75;;
47305;SDS011;33043;48.390;11.734;2022-07-05T15:56:54;4.43;;;1.00;;
47305;SDS011;33043;48.390;11.734;2022-07-05T15:59:22;1.37;;;0.98;;
47305;SDS011;33043;48.390;11.734;2022-07-05T16:01:50;7.97;;;1.10;;
47305;SDS011;33043;48.390;11.734;2022-07-05T16:04:16;2.55;;;0.80;;
47305;SDS011;33043;48.390;11.734;2022-07-05T16:06:42;3.42;;;0.88;;
47305;SDS011;33043;48.390;11.734;2022-07-05T16:09:09;2.28;;;1.20;;
47305;SDS011;33043;48.390;11.734;2022-07-05T16:11:35;2.65;;;0.90;;
47305;SDS011;33043;48.390;11.734;2022-07-05T16:14:02;2.00;;;0.95;;
47305;SDS011;33043;48.390;11.734;2022-07-05T16:16:28;4.87;;;0.95;;
47305;SDS011;33043;48.390;11.734;2022-07-05T16:18:54;1.77;;;1.17;;
47305;SDS011;33043;48.390;11.734;2022-07-05T16:21:21;1.10;;;0.95;;
47305;SDS011;33043;48.390;11.734;2022-07-05T16:23:48;2.50;;;0.90;;
47305;SDS011;33043;48.390;11.734;2022-07-05T16:26:18;5.97;;;1.58;;
47305;SDS011;33043;48.390;11.734;2022-07-05T16:28:44;2.97;;;1.67;;
47305;SDS011;33043;48.390;11.734;2022-07-05T16:31:12;1.05;;;0.95;;
47305;SDS011;33043;48.390;11.734;2022-07-05T16:33:42;2.67;;;1.00;;
47305;SDS011;33043;48.390;11.734;2022-07-05T16:36:10;2.92;;;1.02;;
47305;SDS011;33043;48.390;11.734;2022-07-05T16:38:37;4.18;;;1.00;;
47305;SDS011;33043;48.390;11.734;2022-07-05T16:41:03;1.65;;;1.25;;
47305;SDS011;33043;48.390;11.734;2022-07-05T16:43:30;2.42;;;1.10;;
47305;SDS011;33043;48.390;11.734;2022-07-05T16:46:05;4.65;;;1.10;;
47305;SDS011;33043;48.390;11.734;2022-07-05T16:51:03;1.10;;;0.82;;
47305;SDS011;33043;48.390;11.734;2022-07-05T16:53:30;2.17;;;1.15;;
47305;SDS011;33043;48.390;11.734;2022-07-05T16:58:29;1.17;;;0.80;;
47305;SDS011;33043;48.390;11.734;2022-07-05T17:00:59;2.47;;;0.93;;
47305;SDS011;33043;48.390;11.734;2022-07-05T17:03:25;4.10;;;0.90;;
47305;SDS011;33043;48.390;11.734;2022-07-05T17:05:52;1.37;;;0.90;;
47305;SDS011;33043;48.390;11.734;2022-07-05T17:08:18;1.23;;;0.90;;
47305;SDS011;33043;48.390;11.734;2022-07-05T17:10:44;1.83;;;0.85;;
47305;SDS011;33043;48.390;11.734;2022-07-05T17:13:11;3.90;;;1.35;;
47305;SDS011;33043;48.390;11.734;2022-07-05T17:15:38;2.58;;;0.90;;
47305;SDS011;33043;48.390;11.734;2022-07-05T17:18:05;1.27;;;0.82;;
47305;SDS011;33043;48.390;11.734;2022-07-05T17:20:31;1.00;;;0.90;;
47305;SDS011;33043;48.390;11.734;2022-07-05T17:22:57;1.60;;;0.90;;
47305;SDS011;33043;48.390;11.734;2022-07-05T17:25:23;1.90;;;1.40;;
47305;SDS011;33043;48.390;11.734;2022-07-05T17:27:50;1.58;;;1.00;;
47305;SDS011;33043;48.390;11.734;2022-07-05T17:30:16;0.60;;;0.60;;
47305;SDS011;33043;48.390;11.734;2022-07-05T17:32:42;1.87;;;1.10;;
47305;SDS011;33043;48.390;11.734;2022-07-05T17:35:12;6.07;;;1.33;;
47305;SDS011;33043;48.390;11.734;2022-07-05T17:37:38;4.30;;;1.10;;
47305;SDS011;33043;48.390;11.734;2022-07-05T17:40:04;1.25;;;1.00;;
47305;SDS011;33043;48.390;11.734;2022-07-05T17:42:31;2.87;;;1.30;;
47305;SDS011;33043;48.390;11.734;2022-07-05T17:44:58;2.58;;;0.93;;
47305;SDS011;33043;48.390;11.734;2022-07-05T17:47:24;1.77;;;1.10;;
47305;SDS011;33043;48.390;11.734;2022-07-05T17:49:51;2.35;;;1.02;;
47305;SDS011;33043;48.390;11.734;2022-07-05T17:52:17;3.05;;;1.05;;
47305;SDS011;33043;48.390;11.734;2022-07-05T17:54:44;2.35;;;0.80;;
47305;SDS011;33043;48.390;11.734;2022-07-05T17:57:11;3.78;;;1.10;;
47305;SDS011;33043;48.390;11.734;2022-07-05T17:59:37;5.80;;;1.00;;
47305;SDS011;33043;48.390;11.734;2022-07-05T18:02:04;3.72;;;0.98;;
47305;SDS011;33043;48.390;11.734;2022-07-05T18:04:30;3.00;;;1.00;;
47305;SDS011;33043;48.390;11.734;2022-07-05T18:06:56;2.42;;;1.48;;
47305;SDS011;33043;48.390;11.734;2022-07-05T18:09:23;2.05;;;1.15;;
47305;SDS011;33043;48.390;11.734;2022-07-05T18:11:49;1.55;;;1.05;;
47305;SDS011;33043;48.390;11.734;2022-07-05T18:14:16;3.25;;;1.08;;
47305;SDS011;33043;48.390;11.734;2022-07-05T18:16:42;4.62;;;0.93;;
47305;SDS011;33043;48.390;11.734;2022-07-05T18:19:09;1.20;;;1.10;;
47305;SDS011;33043;48.390;11.734;2022-07-05T18:21:35;1.98;;;1.20;;
47305;SDS011;33043;48.390;11.734;2022-07-05T18:24:02;3.08;;;1.10;;
47305;SDS011;33043;48.390;11.734;2022-07-05T18:26:28;3.17;;;1.23;;
47305;SDS011;33043;48.390;11.734;2022-07-05T18:28:55;1.42;;;1.02;;
47305;SDS011;33043;48.390;11.734;2022-07-05T18:31:21;2.20;;;1.52;;
47305;SDS011;33043;48.390;11.734;2022-07-05T18:33:48;3.37;;;2.17;;
47305;SDS011;33043;48.390;11.734;2022-07-05T18:36:15;3.90;;;1.85;;
47305;SDS011;33043;48.390;11.734;2022-07-05T18:38:41;3.03;;;1.85;;